sensor_id;sensor_type;location;lat;lon;timestamp;temperature;humidity
67354;SHT30;54238;52.278;21.056;2024-01-06T00:01:25;0.17;71.46
67354;SHT30;54238;52.278;21.056;2024-01-06T00:03:54;0.15;71.51
67354;SHT30;54238;52.278;21.056;2024-01-06T00:06:24;0.14;71.67
67354;SHT30;54238;52.278;21.056;2024-01-06T00:08:58;0.11;71.83
67354;SHT30;54238;52.278;21.056;2024-01-06T00:11:30;0.09;72.06
67354;SHT30;54238;52.278;21.056;2024-01-06T00:14:01;0.08;72.20
67354;SHT30;54238;52.278;21.056;2024-01-06T00:16:30;0.05;72.36
67354;SHT30;54238;52.278;21.056;2024-01-06T00:19:03;0.07;72.63
67354;SHT30;54238;52.278;21.056;2024-01-06T00:21:30;0.08;72.75
67354;SHT30;54238;52.278;21.056;2024-01-06T00:23:59;0.09;72.90
67354;SHT30;54238;52.278;21.056;2024-01-06T00:26:31;0.07;72.95
67354;SHT30;54238;52.278;21.056;2024-01-06T00:28:58;0.09;73.11
67354;SHT30;54238;52.278;21.056;2024-01-06T00:31:25;0.10;73.12
67354;SHT30;54238;52.278;21.056;2024-01-06T00:33:59;0.10;73.11
67354;SHT30;54238;52.278;21.056;2024-01-06T00:36:35;0.06;73.17
67354;SHT30;54238;52.278;21.056;2024-01-06T00:39:11;0.05;73.31
67354;SHT30;54238;52.278;21.056;2024-01-06T00:41:43;0.04;73.48
67354;SHT30;54238;52.278;21.056;2024-01-06T00:44:10;0.03;73.51
67354;SHT30;54238;52.278;21.056;2024-01-06T00:46:38;0.01;73.51
67354;SHT30;54238;52.278;21.056;2024-01-06T00:49:09;0.01;73.66
67354;SHT30;54238;52.278;21.056;2024-01-06T00:51:37;0.00;73.75
67354;SHT30;54238;52.278;21.056;2024-01-06T00:54:08;-0.01;73.76
67354;SHT30;54238;52.278;21.056;2024-01-06T00:56:38;-0.03;73.85
67354;SHT30;54238;52.278;21.056;2024-01-06T00:59:09;-0.04;73.89
67354;SHT30;54238;52.278;21.056;2024-01-06T01:01:36;-0.05;73.79
67354;SHT30;54238;52.278;21.056;2024-01-06T01:04:05;-0.11;73.70
67354;SHT30;54238;52.278;21.056;2024-01-06T01:06:33;-0.15;73.76
67354;SHT30;54238;52.278;21.056;2024-01-06T01:09:02;-0.21;73.85
67354;SHT30;54238;52.278;21.056;2024-01-06T01:11:32;-0.26;74.07
67354;SHT30;54238;52.278;21.056;2024-01-06T01:13:59;-0.28;74.11
67354;SHT30;54238;52.278;21.056;2024-01-06T01:16:26;-0.30;74.19
67354;SHT30;54238;52.278;21.056;2024-01-06T01:18:53;-0.32;74.18
67354;SHT30;54238;52.278;21.056;2024-01-06T01:21:20;-0.31;74.29
67354;SHT30;54238;52.278;21.056;2024-01-06T01:23:47;-0.31;74.30
67354;SHT30;54238;52.278;21.056;2024-01-06T01:26:22;-0.32;74.34
67354;SHT30;54238;52.278;21.056;2024-01-06T01:28:52;-0.31;74.28
67354;SHT30;54238;52.278;21.056;2024-01-06T01:31:19;-0.34;74.45
67354;SHT30;54238;52.278;21.056;2024-01-06T01:33:46;-0.36;74.54
67354;SHT30;54238;52.278;21.056;2024-01-06T01:36:14;-0.34;74.57
67354;SHT30;54238;52.278;21.056;2024-01-06T01:38:47;-0.33;74.54
67354;SHT30;54238;52.278;21.056;2024-01-06T01:41:19;-0.34;74.50
67354;SHT30;54238;52.278;21.056;2024-01-06T01:43:48;-0.37;74.50
67354;SHT30;54238;52.278;21.056;2024-01-06T01:46:15;-0.37;74.62
67354;SHT30;54238;52.278;21.056;2024-01-06T01:48:45;-0.35;74.57
67354;SHT30;54238;52.278;21.056;2024-01-06T01:51:14;-0.33;74.60
67354;SHT30;54238;52.278;21.056;2024-01-06T01:53:44;-0.31;74.54
67354;SHT30;54238;52.278;21.056;2024-01-06T01:56:13;-0.30;74.49
67354;SHT30;54238;52.278;21.056;2024-01-06T01:58:43;-0.29;74.42
67354;SHT30;54238;52.278;21.056;2024-01-06T02:01:11;-0.31;74.20
67354;SHT30;54238;52.278;21.056;2024-01-06T02:03:41;-0.29;74.05
67354;SHT30;54238;52.278;21.056;2024-01-06T02:06:11;-0.27;73.89
67354;SHT30;54238;52.278;21.056;2024-01-06T02:08:39;-0.26;73.72
67354;SHT30;54238;52.278;21.056;2024-01-06T02:11:13;-0.26;73.60
67354;SHT30;54238;52.278;21.056;2024-01-06T02:13:40;-0.26;73.48
67354;SHT30;54238;52.278;21.056;2024-01-06T02:16:08;-0.25;73.46
67354;SHT30;54238;52.278;21.056;2024-01-06T02:18:40;-0.23;73.31
67354;SHT30;54238;52.278;21.056;2024-01-06T02:21:12;-0.27;73.20
67354;SHT30;54238;52.278;21.056;2024-01-06T02:23:43;-0.28;73.18
67354;SHT30;54238;52.278;21.056;2024-01-06T02:26:10;-0.31;73.22
67354;SHT30;54238;52.278;21.056;2024-01-06T02:28:38;-0.33;73.23
67354;SHT30;54238;52.278;21.056;2024-01-06T02:31:07;-0.35;73.31
67354;SHT30;54238;52.278;21.056;2024-01-06T02:33:41;-0.35;73.42
67354;SHT30;54238;52.278;21.056;2024-01-06T02:36:11;-0.32;73.55
67354;SHT30;54238;52.278;21.056;2024-01-06T02:38:43;-0.31;73.46
67354;SHT30;54238;52.278;21.056;2024-01-06T02:41:12;-0.29;73.50
67354;SHT30;54238;52.278;21.056;2024-01-06T02:43:39;-0.27;73.50
67354;SHT30;54238;52.278;21.056;2024-01-06T02:46:07;-0.25;73.59
67354;SHT30;54238;52.278;21.056;2024-01-06T02:48:41;-0.26;73.66
67354;SHT30;54238;52.278;21.056;2024-01-06T02:51:08;-0.26;73.66
67354;SHT30;54238;52.278;21.056;2024-01-06T02:53:41;-0.26;73.72
67354;SHT30;54238;52.278;21.056;2024-01-06T02:56:11;-0.23;73.81
67354;SHT30;54238;52.278;21.056;2024-01-06T02:58:47;-0.22;73.89
67354;SHT30;54238;52.278;21.056;2024-01-06T03:01:18;-0.21;73.88
67354;SHT30;54238;52.278;21.056;2024-01-06T03:03:48;-0.17;73.91
67354;SHT30;54238;52.278;21.056;2024-01-06T03:06:17;-0.17;73.90
67354;SHT30;54238;52.278;21.056;2024-01-06T03:08:47;-0.18;73.76
67354;SHT30;54238;52.278;21.056;2024-01-06T03:11:17;-0.18;73.79
67354;SHT30;54238;52.278;21.056;2024-01-06T03:13:44;-0.15;73.90
67354;SHT30;54238;52.278;21.056;2024-01-06T03:16:15;-0.13;73.72
67354;SHT30;54238;52.278;21.056;2024-01-06T03:18:45;-0.11;73.53
67354;SHT30;54238;52.278;21.056;2024-01-06T03:21:17;-0.12;73.51
67354;SHT30;54238;52.278;21.056;2024-01-06T03:23:49;-0.15;73.50
67354;SHT30;54238;52.278;21.056;2024-01-06T03:26:17;-0.14;73.47
67354;SHT30;54238;52.278;21.056;2024-01-06T03:28:44;-0.14;73.66
67354;SHT30;54238;52.278;21.056;2024-01-06T03:31:18;-0.13;73.73
67354;SHT30;54238;52.278;21.056;2024-01-06T03:33:51;-0.14;73.85
67354;SHT30;54238;52.278;21.056;2024-01-06T03:36:21;-0.16;73.99
67354;SHT30;54238;52.278;21.056;2024-01-06T03:38:54;-0.14;74.27
67354;SHT30;54238;52.278;21.056;2024-01-06T03:41:22;-0.15;74.17
67354;SHT30;54238;52.278;21.056;2024-01-06T03:43:49;-0.16;74.28
67354;SHT30;54238;52.278;21.056;2024-01-06T03:46:21;-0.17;74.30
67354;SHT30;54238;52.278;21.056;2024-01-06T03:48:52;-0.16;74.43
67354;SHT30;54238;52.278;21.056;2024-01-06T03:51:24;-0.16;74.51
67354;SHT30;54238;52.278;21.056;2024-01-06T03:53:53;-0.16;74.63
67354;SHT30;54238;52.278;21.056;2024-01-06T03:56:28;-0.17;74.70
67354;SHT30;54238;52.278;21.056;2024-01-06T03:58:59;-0.18;74.79
67354;SHT30;54238;52.278;21.056;2024-01-06T04:01:27;-0.18;74.95
67354;SHT30;54238;52.278;21.056;2024-01-06T04:03:55;-0.15;75.02
67354;SHT30;54238;52.278;21.056;2024-01-06T04:06:22;-0.14;74.97
67354;SHT30;54238;52.278;21.056;2024-01-06T04:08:54;-0.11;75.10
67354;SHT30;54238;52.278;21.056;2024-01-06T04:11:22;-0.07;75.11
67354;SHT30;54238;52.278;21.056;2024-01-06T04:14:11;-0.06;74.93
67354;SHT30;54238;52.278;21.056;2024-01-06T04:16:57;-0.06;75.00
67354;SHT30;54238;52.278;21.056;2024-01-06T04:19:47;-0.09;75.04
67354;SHT30;54238;52.278;21.056;2024-01-06T04:22:36;-0.13;75.07
67354;SHT30;54238;52.278;21.056;2024-01-06T04:25:12;-0.12;75.21
67354;SHT30;54238;52.278;21.056;2024-01-06T04:27:59;-0.14;75.15
67354;SHT30;54238;52.278;21.056;2024-01-06T04:30:46;-0.16;75.16
67354;SHT30;54238;52.278;21.056;2024-01-06T04:33:35;-0.17;75.31
67354;SHT30;54238;52.278;21.056;2024-01-06T04:36:24;-0.17;75.29
67354;SHT30;54238;52.278;21.056;2024-01-06T04:38:54;-0.19;75.32
67354;SHT30;54238;52.278;21.056;2024-01-06T04:41:34;-0.15;75.53
67354;SHT30;54238;52.278;21.056;2024-01-06T04:44:09;-0.14;75.46
67354;SHT30;54238;52.278;21.056;2024-01-06T04:46:39;-0.17;75.32
67354;SHT30;54238;52.278;21.056;2024-01-06T04:49:09;-0.20;75.33
67354;SHT30;54238;52.278;21.056;2024-01-06T04:51:42;-0.20;75.38
67354;SHT30;54238;52.278;21.056;2024-01-06T04:54:11;-0.19;75.35
67354;SHT30;54238;52.278;21.056;2024-01-06T04:56:43;-0.22;75.33
67354;SHT30;54238;52.278;21.056;2024-01-06T04:59:11;-0.23;75.38
67354;SHT30;54238;52.278;21.056;2024-01-06T05:01:38;-0.22;75.48
67354;SHT30;54238;52.278;21.056;2024-01-06T05:04:06;-0.20;75.40
67354;SHT30;54238;52.278;21.056;2024-01-06T05:06:34;-0.20;75.47
67354;SHT30;54238;52.278;21.056;2024-01-06T05:09:04;-0.19;75.49
67354;SHT30;54238;52.278;21.056;2024-01-06T05:11:33;-0.19;75.46
67354;SHT30;54238;52.278;21.056;2024-01-06T05:14:01;-0.23;75.44
67354;SHT30;54238;52.278;21.056;2024-01-06T05:16:28;-0.23;75.49
67354;SHT30;54238;52.278;21.056;2024-01-06T05:19:00;-0.23;75.58
67354;SHT30;54238;52.278;21.056;2024-01-06T05:21:28;-0.22;75.67
67354;SHT30;54238;52.278;21.056;2024-01-06T05:24:01;-0.23;75.70
67354;SHT30;54238;52.278;21.056;2024-01-06T05:26:33;-0.24;75.78
67354;SHT30;54238;52.278;21.056;2024-01-06T05:29:09;-0.28;75.90
67354;SHT30;54238;52.278;21.056;2024-01-06T05:31:39;-0.29;75.98
67354;SHT30;54238;52.278;21.056;2024-01-06T05:34:11;-0.30;76.12
67354;SHT30;54238;52.278;21.056;2024-01-06T05:36:43;-0.28;76.17
67354;SHT30;54238;52.278;21.056;2024-01-06T05:39:12;-0.26;76.28
67354;SHT30;54238;52.278;21.056;2024-01-06T05:41:40;-0.27;76.26
67354;SHT30;54238;52.278;21.056;2024-01-06T05:44:08;-0.28;76.33
67354;SHT30;54238;52.278;21.056;2024-01-06T05:46:38;-0.28;76.39
67354;SHT30;54238;52.278;21.056;2024-01-06T05:49:08;-0.29;76.49
67354;SHT30;54238;52.278;21.056;2024-01-06T05:51:37;-0.29;76.56
67354;SHT30;54238;52.278;21.056;2024-01-06T05:54:15;-0.28;76.49
67354;SHT30;54238;52.278;21.056;2024-01-06T05:56:42;-0.28;76.48
67354;SHT30;54238;52.278;21.056;2024-01-06T05:59:12;-0.30;76.60
67354;SHT30;54238;52.278;21.056;2024-01-06T06:01:44;-0.30;76.54
67354;SHT30;54238;52.278;21.056;2024-01-06T06:04:14;-0.28;76.57
67354;SHT30;54238;52.278;21.056;2024-01-06T06:06:41;-0.32;76.50
67354;SHT30;54238;52.278;21.056;2024-01-06T06:09:13;-0.33;76.49
67354;SHT30;54238;52.278;21.056;2024-01-06T06:11:43;-0.34;76.61
67354;SHT30;54238;52.278;21.056;2024-01-06T06:14:15;-0.31;76.70
67354;SHT30;54238;52.278;21.056;2024-01-06T06:16:43;-0.29;76.63
67354;SHT30;54238;52.278;21.056;2024-01-06T06:19:10;-0.27;76.53
67354;SHT30;54238;52.278;21.056;2024-01-06T06:21:38;-0.27;76.47
67354;SHT30;54238;52.278;21.056;2024-01-06T06:24:13;-0.28;76.30
67354;SHT30;54238;52.278;21.056;2024-01-06T06:26:43;-0.29;76.25
67354;SHT30;54238;52.278;21.056;2024-01-06T06:29:12;-0.28;76.32
67354;SHT30;54238;52.278;21.056;2024-01-06T06:31:42;-0.26;76.22
67354;SHT30;54238;52.278;21.056;2024-01-06T06:34:17;-0.27;76.18
67354;SHT30;54238;52.278;21.056;2024-01-06T06:36:44;-0.28;76.02
67354;SHT30;54238;52.278;21.056;2024-01-06T06:39:17;-0.28;76.08
67354;SHT30;54238;52.278;21.056;2024-01-06T06:41:46;-0.27;76.01
67354;SHT30;54238;52.278;21.056;2024-01-06T06:44:14;-0.27;75.98
67354;SHT30;54238;52.278;21.056;2024-01-06T06:46:43;-0.26;75.93
67354;SHT30;54238;52.278;21.056;2024-01-06T06:49:11;-0.26;75.86
67354;SHT30;54238;52.278;21.056;2024-01-06T06:51:41;-0.26;75.77
67354;SHT30;54238;52.278;21.056;2024-01-06T06:54:14;-0.27;75.74
67354;SHT30;54238;52.278;21.056;2024-01-06T06:56:47;-0.26;75.67
67354;SHT30;54238;52.278;21.056;2024-01-06T06:59:18;-0.23;75.64
67354;SHT30;54238;52.278;21.056;2024-01-06T07:01:48;-0.21;75.59
67354;SHT30;54238;52.278;21.056;2024-01-06T07:04:18;-0.19;75.50
67354;SHT30;54238;52.278;21.056;2024-01-06T07:06:50;-0.17;75.45
67354;SHT30;54238;52.278;21.056;2024-01-06T07:09:19;-0.18;75.24
67354;SHT30;54238;52.278;21.056;2024-01-06T07:11:50;-0.17;75.22
67354;SHT30;54238;52.278;21.056;2024-01-06T07:14:19;-0.16;75.21
67354;SHT30;54238;52.278;21.056;2024-01-06T07:16:51;-0.14;75.18
67354;SHT30;54238;52.278;21.056;2024-01-06T07:19:21;-0.16;75.06
67354;SHT30;54238;52.278;21.056;2024-01-06T07:21:48;-0.19;74.97
67354;SHT30;54238;52.278;21.056;2024-01-06T07:24:15;-0.20;75.00
67354;SHT30;54238;52.278;21.056;2024-01-06T07:26:45;-0.21;74.94
67354;SHT30;54238;52.278;21.056;2024-01-06T07:29:18;-0.23;74.98
67354;SHT30;54238;52.278;21.056;2024-01-06T07:31:48;-0.25;75.12
67354;SHT30;54238;52.278;21.056;2024-01-06T07:34:18;-0.23;75.18
67354;SHT30;54238;52.278;21.056;2024-01-06T07:36:48;-0.27;75.02
67354;SHT30;54238;52.278;21.056;2024-01-06T07:39:18;-0.30;75.09
67354;SHT30;54238;52.278;21.056;2024-01-06T07:41:53;-0.27;75.20
67354;SHT30;54238;52.278;21.056;2024-01-06T07:44:25;-0.24;75.14
67354;SHT30;54238;52.278;21.056;2024-01-06T07:46:57;-0.22;75.18
67354;SHT30;54238;52.278;21.056;2024-01-06T07:49:24;-0.16;75.13
67354;SHT30;54238;52.278;21.056;2024-01-06T07:51:54;-0.14;75.00
67354;SHT30;54238;52.278;21.056;2024-01-06T07:54:25;-0.13;75.05
67354;SHT30;54238;52.278;21.056;2024-01-06T07:56:58;-0.09;75.00
67354;SHT30;54238;52.278;21.056;2024-01-06T07:59:26;-0.09;74.91
67354;SHT30;54238;52.278;21.056;2024-01-06T08:01:53;-0.07;74.90
67354;SHT30;54238;52.278;21.056;2024-01-06T08:04:25;-0.04;74.88
67354;SHT30;54238;52.278;21.056;2024-01-06T08:06:53;-0.00;74.86
67354;SHT30;54238;52.278;21.056;2024-01-06T08:09:25;0.01;74.70
67354;SHT30;54238;52.278;21.056;2024-01-06T08:11:52;0.01;74.61
67354;SHT30;54238;52.278;21.056;2024-01-06T08:14:24;0.01;74.48
67354;SHT30;54238;52.278;21.056;2024-01-06T08:16:53;0.00;74.36
67354;SHT30;54238;52.278;21.056;2024-01-06T08:19:23;-0.00;74.30
67354;SHT30;54238;52.278;21.056;2024-01-06T08:21:55;0.00;74.30
67354;SHT30;54238;52.278;21.056;2024-01-06T08:24:22;-0.01;74.35
67354;SHT30;54238;52.278;21.056;2024-01-06T08:26:54;0.00;74.48
67354;SHT30;54238;52.278;21.056;2024-01-06T08:29:21;0.01;74.36
67354;SHT30;54238;52.278;21.056;2024-01-06T08:31:53;0.04;74.27
67354;SHT30;54238;52.278;21.056;2024-01-06T08:34:21;0.05;74.12
67354;SHT30;54238;52.278;21.056;2024-01-06T08:36:51;0.08;74.23
67354;SHT30;54238;52.278;21.056;2024-01-06T08:39:25;0.13;74.23
67354;SHT30;54238;52.278;21.056;2024-01-06T08:41:53;0.17;74.09
67354;SHT30;54238;52.278;21.056;2024-01-06T08:44:23;0.17;73.77
67354;SHT30;54238;52.278;21.056;2024-01-06T08:46:52;0.16;73.70
67354;SHT30;54238;52.278;21.056;2024-01-06T08:49:19;0.16;73.63
67354;SHT30;54238;52.278;21.056;2024-01-06T08:51:51;0.14;73.59
67354;SHT30;54238;52.278;21.056;2024-01-06T08:54:23;0.16;73.65
67354;SHT30;54238;52.278;21.056;2024-01-06T08:56:52;0.17;73.60
67354;SHT30;54238;52.278;21.056;2024-01-06T08:59:21;0.20;73.60
67354;SHT30;54238;52.278;21.056;2024-01-06T09:01:51;0.22;73.36
67354;SHT30;54238;52.278;21.056;2024-01-06T09:04:19;0.23;73.37
67354;SHT30;54238;52.278;21.056;2024-01-06T09:06:51;0.23;73.17
67354;SHT30;54238;52.278;21.056;2024-01-06T09:09:23;0.23;73.20
67354;SHT30;54238;52.278;21.056;2024-01-06T09:11:50;0.25;73.18
67354;SHT30;54238;52.278;21.056;2024-01-06T09:14:23;0.26;73.10
67354;SHT30;54238;52.278;21.056;2024-01-06T09:16:55;0.29;73.03
67354;SHT30;54238;52.278;21.056;2024-01-06T09:19:25;0.32;72.94
67354;SHT30;54238;52.278;21.056;2024-01-06T09:21:55;0.34;72.70
67354;SHT30;54238;52.278;21.056;2024-01-06T09:24:22;0.32;72.56
67354;SHT30;54238;52.278;21.056;2024-01-06T09:26:54;0.31;72.59
67354;SHT30;54238;52.278;21.056;2024-01-06T09:29:22;0.26;72.42
67354;SHT30;54238;52.278;21.056;2024-01-06T09:31:49;0.25;72.57
67354;SHT30;54238;52.278;21.056;2024-01-06T09:34:21;0.26;72.53
67354;SHT30;54238;52.278;21.056;2024-01-06T09:36:50;0.28;72.66
67354;SHT30;54238;52.278;21.056;2024-01-06T09:39:17;0.28;72.47
67354;SHT30;54238;52.278;21.056;2024-01-06T09:41:50;0.26;72.42
67354;SHT30;54238;52.278;21.056;2024-01-06T09:44:19;0.26;72.41
67354;SHT30;54238;52.278;21.056;2024-01-06T09:46:47;0.28;72.62
67354;SHT30;54238;52.278;21.056;2024-01-06T09:49:23;0.27;72.67
67354;SHT30;54238;52.278;21.056;2024-01-06T09:51:56;0.28;72.69
67354;SHT30;54238;52.278;21.056;2024-01-06T09:54:30;0.27;72.80
67354;SHT30;54238;52.278;21.056;2024-01-06T09:57:06;0.26;72.84
67354;SHT30;54238;52.278;21.056;2024-01-06T09:59:38;0.27;72.86
67354;SHT30;54238;52.278;21.056;2024-01-06T10:02:09;0.26;72.94
67354;SHT30;54238;52.278;21.056;2024-01-06T10:04:44;0.27;73.02
67354;SHT30;54238;52.278;21.056;2024-01-06T10:07:13;0.29;73.27
67354;SHT30;54238;52.278;21.056;2024-01-06T10:09:41;0.31;73.22
67354;SHT30;54238;52.278;21.056;2024-01-06T10:12:11;0.32;73.20
67354;SHT30;54238;52.278;21.056;2024-01-06T10:14:40;0.29;73.24
67354;SHT30;54238;52.278;21.056;2024-01-06T10:17:09;0.30;73.41
67354;SHT30;54238;52.278;21.056;2024-01-06T10:19:37;0.30;73.50
67354;SHT30;54238;52.278;21.056;2024-01-06T10:22:05;0.30;73.51
67354;SHT30;54238;52.278;21.056;2024-01-06T10:24:36;0.30;73.56
67354;SHT30;54238;52.278;21.056;2024-01-06T10:27:07;0.30;73.65
67354;SHT30;54238;52.278;21.056;2024-01-06T10:29:36;0.29;73.75
67354;SHT30;54238;52.278;21.056;2024-01-06T10:32:10;0.20;73.82
67354;SHT30;54238;52.278;21.056;2024-01-06T10:34:38;0.17;73.97
67354;SHT30;54238;52.278;21.056;2024-01-06T10:37:11;0.17;74.23
67354;SHT30;54238;52.278;21.056;2024-01-06T10:39:40;0.19;74.26
67354;SHT30;54238;52.278;21.056;2024-01-06T10:42:12;0.20;74.35
67354;SHT30;54238;52.278;21.056;2024-01-06T10:44:44;0.22;74.58
67354;SHT30;54238;52.278;21.056;2024-01-06T10:47:18;0.25;74.67
67354;SHT30;54238;52.278;21.056;2024-01-06T10:49:51;0.27;74.64
67354;SHT30;54238;52.278;21.056;2024-01-06T10:52:30;0.29;74.75
67354;SHT30;54238;52.278;21.056;2024-01-06T10:54:59;0.31;74.69
67354;SHT30;54238;52.278;21.056;2024-01-06T10:57:33;0.35;74.73
67354;SHT30;54238;52.278;21.056;2024-01-06T11:00:07;0.38;74.73
67354;SHT30;54238;52.278;21.056;2024-01-06T11:02:45;0.41;74.56
67354;SHT30;54238;52.278;21.056;2024-01-06T11:05:19;0.43;74.67
67354;SHT30;54238;52.278;21.056;2024-01-06T11:07:48;0.46;74.57
67354;SHT30;54238;52.278;21.056;2024-01-06T11:10:21;0.51;74.55
67354;SHT30;54238;52.278;21.056;2024-01-06T11:13:05;0.51;74.22
67354;SHT30;54238;52.278;21.056;2024-01-06T11:15:38;0.49;74.14
67354;SHT30;54238;52.278;21.056;2024-01-06T11:18:17;0.48;74.23
67354;SHT30;54238;52.278;21.056;2024-01-06T11:26:55;0.53;73.85
67354;SHT30;54238;52.278;21.056;2024-01-06T11:29:26;0.52;73.83
67354;SHT30;54238;52.278;21.056;2024-01-06T11:32:39;0.54;73.77
67354;SHT30;54238;52.278;21.056;2024-01-06T11:34:50;0.57;73.74
67354;SHT30;54238;52.278;21.056;2024-01-06T11:38:10;0.59;73.40
67354;SHT30;54238;52.278;21.056;2024-01-06T11:40:24;0.56;72.91
67354;SHT30;54238;52.278;21.056;2024-01-06T11:45:32;0.54;72.71
67354;SHT30;54238;52.278;21.056;2024-01-06T11:48:04;0.53;72.51
67354;SHT30;54238;52.278;21.056;2024-01-06T11:50:39;0.56;72.65
67354;SHT30;54238;52.278;21.056;2024-01-06T11:53:11;0.58;72.58
67354;SHT30;54238;52.278;21.056;2024-01-06T11:55:41;0.61;72.55
67354;SHT30;54238;52.278;21.056;2024-01-06T11:58:13;0.63;72.30
67354;SHT30;54238;52.278;21.056;2024-01-06T12:00:55;0.68;72.35
67354;SHT30;54238;52.278;21.056;2024-01-06T12:03:30;0.74;72.41
67354;SHT30;54238;52.278;21.056;2024-01-06T12:06:02;0.80;72.22
67354;SHT30;54238;52.278;21.056;2024-01-06T12:08:32;0.82;71.37
67354;SHT30;54238;52.278;21.056;2024-01-06T12:11:08;0.86;71.28
67354;SHT30;54238;52.278;21.056;2024-01-06T12:13:38;0.90;70.97
67354;SHT30;54238;52.278;21.056;2024-01-06T12:16:14;0.91;70.78
67354;SHT30;54238;52.278;21.056;2024-01-06T12:18:50;0.92;70.70
67354;SHT30;54238;52.278;21.056;2024-01-06T12:21:22;0.95;70.42
67354;SHT30;54238;52.278;21.056;2024-01-06T12:24:11;0.96;70.24
67354;SHT30;54238;52.278;21.056;2024-01-06T12:27:14;1.00;70.47
67354;SHT30;54238;52.278;21.056;2024-01-06T12:29:44;1.03;70.23
67354;SHT30;54238;52.278;21.056;2024-01-06T12:32:13;1.03;70.08
67354;SHT30;54238;52.278;21.056;2024-01-06T12:34:42;1.02;69.75
67354;SHT30;54238;52.278;21.056;2024-01-06T12:37:13;1.02;69.70
67354;SHT30;54238;52.278;21.056;2024-01-06T12:39:41;1.05;69.37
67354;SHT30;54238;52.278;21.056;2024-01-06T12:42:11;1.04;69.18
67354;SHT30;54238;52.278;21.056;2024-01-06T12:44:44;1.05;69.14
67354;SHT30;54238;52.278;21.056;2024-01-06T12:47:12;1.05;68.91
67354;SHT30;54238;52.278;21.056;2024-01-06T12:49:47;1.02;68.59
67354;SHT30;54238;52.278;21.056;2024-01-06T12:52:20;0.99;68.25
67354;SHT30;54238;52.278;21.056;2024-01-06T12:54:52;0.99;68.32
67354;SHT30;54238;52.278;21.056;2024-01-06T12:57:21;0.98;68.27
67354;SHT30;54238;52.278;21.056;2024-01-06T12:59:52;0.96;68.10
67354;SHT30;54238;52.278;21.056;2024-01-06T13:02:23;0.92;68.27
67354;SHT30;54238;52.278;21.056;2024-01-06T13:04:53;0.94;68.29
67354;SHT30;54238;52.278;21.056;2024-01-06T13:07:29;0.93;68.35
67354;SHT30;54238;52.278;21.056;2024-01-06T13:10:04;0.94;68.03
67354;SHT30;54238;52.278;21.056;2024-01-06T13:12:35;0.93;67.74
67354;SHT30;54238;52.278;21.056;2024-01-06T13:15:09;0.89;67.65
67354;SHT30;54238;52.278;21.056;2024-01-06T13:17:40;0.87;67.46
67354;SHT30;54238;52.278;21.056;2024-01-06T13:20:13;0.84;67.00
67354;SHT30;54238;52.278;21.056;2024-01-06T13:22:43;0.81;66.92
67354;SHT30;54238;52.278;21.056;2024-01-06T13:25:17;0.82;66.76
67354;SHT30;54238;52.278;21.056;2024-01-06T13:27:47;0.81;66.49
67354;SHT30;54238;52.278;21.056;2024-01-06T13:30:15;0.79;66.38
67354;SHT30;54238;52.278;21.056;2024-01-06T13:32:52;0.78;66.31
67354;SHT30;54238;52.278;21.056;2024-01-06T13:35:22;0.76;66.12
67354;SHT30;54238;52.278;21.056;2024-01-06T13:37:53;0.75;66.22
67354;SHT30;54238;52.278;21.056;2024-01-06T13:40:29;0.76;66.08
67354;SHT30;54238;52.278;21.056;2024-01-06T13:43:00;0.77;65.74
67354;SHT30;54238;52.278;21.056;2024-01-06T13:45:35;0.74;65.03
67354;SHT30;54238;52.278;21.056;2024-01-06T13:48:10;0.71;64.47
67354;SHT30;54238;52.278;21.056;2024-01-06T13:50:41;0.68;64.17
67354;SHT30;54238;52.278;21.056;2024-01-06T13:53:17;0.66;64.20
67354;SHT30;54238;52.278;21.056;2024-01-06T13:55:57;0.64;64.14
67354;SHT30;54238;52.278;21.056;2024-01-06T13:58:34;0.60;64.07
67354;SHT30;54238;52.278;21.056;2024-01-06T14:01:06;0.57;64.01
67354;SHT30;54238;52.278;21.056;2024-01-06T14:03:38;0.56;64.09
67354;SHT30;54238;52.278;21.056;2024-01-06T14:06:09;0.53;63.82
67354;SHT30;54238;52.278;21.056;2024-01-06T14:08:40;0.52;63.99
67354;SHT30;54238;52.278;21.056;2024-01-06T14:11:13;0.53;63.95
67354;SHT30;54238;52.278;21.056;2024-01-06T14:13:44;0.52;63.85
67354;SHT30;54238;52.278;21.056;2024-01-06T14:16:16;0.51;63.91
67354;SHT30;54238;52.278;21.056;2024-01-06T14:18:48;0.51;64.06
67354;SHT30;54238;52.278;21.056;2024-01-06T14:21:21;0.54;64.18
67354;SHT30;54238;52.278;21.056;2024-01-06T14:23:54;0.55;64.24
67354;SHT30;54238;52.278;21.056;2024-01-06T14:26:22;0.55;64.26
67354;SHT30;54238;52.278;21.056;2024-01-06T14:28:52;0.54;64.13
67354;SHT30;54238;52.278;21.056;2024-01-06T14:31:20;0.52;63.86
67354;SHT30;54238;52.278;21.056;2024-01-06T14:33:55;0.50;64.07
67354;SHT30;54238;52.278;21.056;2024-01-06T14:36:25;0.49;64.00
67354;SHT30;54238;52.278;21.056;2024-01-06T14:39:01;0.46;63.86
67354;SHT30;54238;52.278;21.056;2024-01-06T14:41:32;0.45;64.06
67354;SHT30;54238;52.278;21.056;2024-01-06T14:44:01;0.45;63.74
67354;SHT30;54238;52.278;21.056;2024-01-06T14:46:30;0.41;63.32
67354;SHT30;54238;52.278;21.056;2024-01-06T14:49:02;0.39;63.58
67354;SHT30;54238;52.278;21.056;2024-01-06T14:51:34;0.36;63.38
67354;SHT30;54238;52.278;21.056;2024-01-06T14:54:05;0.30;62.73
67354;SHT30;54238;52.278;21.056;2024-01-06T14:56:41;0.25;62.50
67354;SHT30;54238;52.278;21.056;2024-01-06T14:59:09;0.22;62.63
67354;SHT30;54238;52.278;21.056;2024-01-06T15:01:44;0.22;62.77
67354;SHT30;54238;52.278;21.056;2024-01-06T15:04:11;0.21;62.88
67354;SHT30;54238;52.278;21.056;2024-01-06T15:06:44;0.22;63.08
67354;SHT30;54238;52.278;21.056;2024-01-06T15:09:18;0.21;62.72
67354;SHT30;54238;52.278;21.056;2024-01-06T15:11:47;0.22;62.95
67354;SHT30;54238;52.278;21.056;2024-01-06T15:14:18;0.25;62.97
67354;SHT30;54238;52.278;21.056;2024-01-06T15:16:52;0.22;62.36
67354;SHT30;54238;52.278;21.056;2024-01-06T15:19:19;0.22;62.24
67354;SHT30;54238;52.278;21.056;2024-01-06T15:21:54;0.17;62.18
67354;SHT30;54238;52.278;21.056;2024-01-06T15:24:25;0.14;62.12
67354;SHT30;54238;52.278;21.056;2024-01-06T15:26:56;0.14;62.45
67354;SHT30;54238;52.278;21.056;2024-01-06T15:29:24;0.14;62.57
67354;SHT30;54238;52.278;21.056;2024-01-06T15:31:54;0.13;62.37
67354;SHT30;54238;52.278;21.056;2024-01-06T15:34:24;0.09;62.16
67354;SHT30;54238;52.278;21.056;2024-01-06T15:36:58;0.03;61.90
67354;SHT30;54238;52.278;21.056;2024-01-06T15:39:25;0.01;61.78
67354;SHT30;54238;52.278;21.056;2024-01-06T15:41:55;0.00;62.02
67354;SHT30;54238;52.278;21.056;2024-01-06T15:44:27;-0.00;62.18
67354;SHT30;54238;52.278;21.056;2024-01-06T15:46:56;-0.00;61.83
67354;SHT30;54238;52.278;21.056;2024-01-06T15:49:29;-0.02;61.88
67354;SHT30;54238;52.278;21.056;2024-01-06T15:52:01;-0.01;62.10
67354;SHT30;54238;52.278;21.056;2024-01-06T15:54:35;-0.01;61.94
67354;SHT30;54238;52.278;21.056;2024-01-06T15:57:07;-0.02;61.88